Time;durP1;ratioP1;P1;durP2;ratioP2;P2;SDS_P1;SDS_P2;PMS_P1;PMS_P2;Temp;Humidity;BMP_temperature;BMP_pressure;BME280_temperature;BME280_humidity;BME280_pressure;Samples;Min_cycle;Max_cycle;Signal;HPM_P1;HPM_P2
2023/06/17 00:01:06;;;;;;;9.18;7.30;;;;;;;17.89;74.64;100360.00;4912136;29;20035;-71
2023/06/17 00:03:33;;;;;;;10.60;7.72;;;;;;;17.93;74.86;100356.13;4948061;28;20071;-69
2023/06/17 00:05:59;;;;;;;12.82;8.50;;;;;;;17.92;75.15;100350.88;4946329;28;20121;-70
2023/06/17 00:08:26;;;;;;;11.40;8.27;;;;;;;17.85;75.60;100351.34;4929072;29;20051;-70
2023/06/17 00:10:53;;;;;;;12.75;8.45;;;;;;;17.87;75.96;100357.44;4917549;29;20050;-70
2023/06/17 00:13:19;;;;;;;9.52;7.75;;;;;;;17.84;75.93;100348.78;4949264;28;20052;-70
2023/06/17 00:15:56;;;;;;;10.35;7.97;;;;;;;17.77;77.09;100351.09;4948103;28;20410;-70
2023/06/17 00:18:24;;;;;;;10.35;8.18;;;;;;;17.68;77.69;100349.13;4950944;28;20051;-71
2023/06/17 00:20:53;;;;;;;9.88;7.90;;;;;;;17.56;78.11;100344.69;4937492;29;20047;-69
2023/06/17 00:23:21;;;;;;;11.25;8.52;;;;;;;17.48;78.76;100339.03;4949014;28;20509;-69
2023/06/17 00:25:49;;;;;;;12.77;7.93;;;;;;;17.46;78.69;100343.69;4951228;28;20095;-69
2023/06/17 00:28:16;;;;;;;10.38;8.57;;;;;;;17.50;77.50;100340.63;4937705;28;20055;-70
2023/06/17 00:30:46;;;;;;;9.73;8.30;;;;;;;17.43;78.00;100334.06;4940158;28;20043;-72
2023/06/17 00:33:14;;;;;;;;;;;;;;;17.49;76.97;100327.38;4957463;28;20061;-70
2023/06/17 00:35:41;;;;;;;14.50;7.85;;;;;;;17.52;77.16;100337.84;4958833;28;19922;-70
2023/06/17 00:38:09;;;;;;;10.65;7.85;;;;;;;17.44;77.02;100335.78;4958756;28;20067;-69
2023/06/17 00:40:36;;;;;;;10.27;8.05;;;;;;;17.41;76.61;100337.81;4951309;28;20057;-70
2023/06/17 00:43:04;;;;;;;9.38;8.07;;;;;;;17.34;77.05;100344.59;4923203;28;20050;-70
2023/06/17 00:45:38;;;;;;;9.70;8.05;;;;;;;17.37;76.25;100341.69;4953973;28;20099;-70
2023/06/17 00:48:10;;;;;;;8.93;7.50;;;;;;;17.39;75.42;100337.06;4937911;29;20057;-70
2023/06/17 00:50:37;;;;;;;8.82;7.45;;;;;;;17.37;74.73;100334.50;4948433;28;20083;-71
2023/06/17 00:53:05;;;;;;;9.45;7.68;;;;;;;17.40;74.37;100344.13;4949016;28;20054;-70
2023/06/17 00:55:33;;;;;;;8.30;7.28;;;;;;;17.36;74.43;100335.47;4949448;28;20048;-69
2023/06/17 00:58:06;;;;;;;10.30;8.02;;;;;;;17.37;74.86;100344.38;4951654;28;20348;-70
2023/06/17 01:00:33;;;;;;;10.45;7.60;;;;;;;17.26;76.14;100331.81;4936423;29;20276;-71
2023/06/17 01:03:00;;;;;;;10.00;7.32;;;;;;;17.23;76.09;100331.19;4950232;28;20529;-70
2023/06/17 01:05:27;;;;;;;11.70;7.80;;;;;;;17.22;76.59;100332.16;4936362;28;20051;-70
2023/06/17 01:08:15;;;;;;;10.85;7.95;;;;;;;17.16;76.78;100336.13;4950772;28;20074;-69
2023/06/17 01:11:02;;;;;;;11.40;7.95;;;;;;;17.12;77.98;100332.84;4948873;28;20047;-69
2023/06/17 01:13:34;;;;;;;9.07;7.93;;;;;;;17.08;77.81;100334.03;4932488;29;20320;-69
2023/06/17 01:16:02;;;;;;;8.75;7.28;;;;;;;17.07;78.09;100332.34;4933851;28;20043;-69
2023/06/17 01:18:29;;;;;;;9.65;7.68;;;;;;;17.08;78.02;100331.38;4934211;28;20047;-69
2023/06/17 01:20:56;;;;;;;8.95;7.68;;;;;;;17.05;77.95;100326.25;4935699;29;20082;-69
2023/06/17 01:23:31;;;;;;;8.63;7.68;;;;;;;16.94;77.39;100325.34;4933072;29;20138;-69
2023/06/17 01:26:01;;;;;;;8.10;7.30;;;;;;;16.85;77.80;100316.16;4937086;28;20052;-70
2023/06/17 01:28:29;;;;;;;9.93;7.57;;;;;;;16.80;77.97;100324.53;4932815;29;20055;-70
2023/06/17 01:30:57;;;;;;;9.18;7.35;;;;;;;16.72;78.50;100315.38;4947094;28;20103;-70
2023/06/17 01:33:24;;;;;;;9.00;7.43;;;;;;;16.73;79.02;100320.59;4929233;29;20051;-70
2023/06/17 01:36:17;;;;;;;9.30;7.60;;;;;;;16.74;79.48;100321.47;4945118;28;20429;-69
2023/06/17 01:38:48;;;;;;;10.57;7.75;;;;;;;16.67;80.14;100313.06;4951163;28;20047;-69
2023/06/17 01:41:18;;;;;;;11.30;7.22;;;;;;;16.69;80.08;100315.59;4941571;28;20150;-68
2023/06/17 01:43:46;;;;;;;8.90;7.40;;;;;;;16.65;79.67;100308.78;4946963;28;20047;-69
2023/06/17 01:46:14;;;;;;;9.73;7.80;;;;;;;16.61;80.29;100315.28;4933890;29;20047;-69
2023/06/17 01:48:41;;;;;;;8.07;7.00;;;;;;;16.57;81.21;100321.81;4953016;28;20046;-70
2023/06/17 01:51:08;;;;;;;12.07;7.72;;;;;;;16.59;81.10;100315.38;4928270;29;20058;-71
2023/06/17 01:53:35;;;;;;;11.30;7.75;;;;;;;16.60;81.32;100310.91;4934191;29;20079;-69
2023/06/17 01:56:02;;;;;;;10.98;8.00;;;;;;;16.58;82.05;100316.34;4935520;29;20060;-69
2023/06/17 01:58:28;;;;;;;9.38;8.32;;;;;;;16.45;83.20;100310.19;4954029;28;20057;-69
2023/06/17 02:00:55;;;;;;;8.88;7.97;;;;;;;16.38;84.75;100314.25;4933027;28;20114;-70
2023/06/17 02:03:21;;;;;;;10.00;8.27;;;;;;;16.33;85.23;100311.94;4947387;28;20138;-69
2023/06/17 02:05:49;;;;;;;9.05;8.00;;;;;;;16.30;86.35;100320.19;4953195;29;20049;-70
2023/06/17 02:08:16;;;;;;;14.02;8.57;;;;;;;16.28;86.33;100319.44;4952741;28;20106;-70
2023/06/17 02:10:43;;;;;;;11.52;8.32;;;;;;;16.20;87.73;100323.63;4949164;28;20564;-70
2023/06/17 02:13:10;;;;;;;10.48;8.23;;;;;;;16.05;87.77;100305.06;4917559;28;20166;-71
2023/06/17 02:15:38;;;;;;;12.80;8.25;;;;;;;16.14;88.31;100327.56;4937331;29;20537;-69
2023/06/17 02:18:05;;;;;;;10.15;8.43;;;;;;;16.11;88.32;100319.78;4951351;28;20409;-70
2023/06/17 02:20:32;;;;;;;10.07;8.63;;;;;;;16.05;88.18;100314.88;4952625;28;20059;-69
2023/06/17 02:22:58;;;;;;;9.52;8.45;;;;;;;16.06;88.61;100321.91;4950652;28;20146;-70
2023/06/17 02:25:25;;;;;;;10.00;8.15;;;;;;;16.00;88.71;100317.00;4951242;28;20081;-69
2023/06/17 02:27:52;;;;;;;10.15;8.23;;;;;;;15.93;89.19;100305.91;4934008;29;20043;-69
2023/06/17 02:30:19;;;;;;;10.05;7.95;;;;;;;15.94;89.51;100306.75;4951266;29;20078;-72
2023/06/17 02:32:46;;;;;;;10.35;8.57;;;;;;;15.89;90.21;100312.44;4925483;28;20114;-70
2023/06/17 02:35:13;;;;;;;11.13;8.50;;;;;;;15.88;90.30;100309.88;4933047;28;20090;-70
2023/06/17 02:37:41;;;;;;;11.02;8.48;;;;;;;15.85;90.76;100310.09;4954667;28;20051;-70
2023/06/17 02:40:08;;;;;;;12.85;8.68;;;;;;;15.82;91.38;100308.47;4957417;28;20047;-70
2023/06/17 02:42:36;;;;;;;10.43;8.18;;;;;;;15.75;91.78;100309.84;4951311;29;20062;-71
2023/06/17 02:45:04;;;;;;;12.38;8.90;;;;;;;15.72;92.54;100307.41;4944807;28;20075;-70
2023/06/17 02:47:31;;;;;;;10.75;8.10;;;;;;;15.70;92.82;100310.19;4943839;28;20051;-69
2023/06/17 02:49:57;;;;;;;9.88;8.25;;;;;;;15.65;93.23;100298.97;4954563;28;20111;-71
2023/06/17 02:52:24;;;;;;;11.07;8.77;;;;;;;15.67;93.33;100307.72;4944581;28;20046;-70
2023/06/17 02:54:51;;;;;;;9.57;8.23;;;;;;;15.63;93.33;100294.69;4948629;28;20054;-69
2023/06/17 02:57:19;;;;;;;11.30;8.60;;;;;;;15.58;94.08;100297.72;4950471;29;20186;-69
2023/06/17 02:59:48;;;;;;;10.73;9.25;;;;;;;15.58;95.00;100302.19;4952661;28;20517;-66
2023/06/17 03:02:14;;;;;;;10.82;8.57;;;;;;;15.59;96.55;100306.53;4952068;29;20114;-69
2023/06/17 03:04:46;;;;;;;11.45;8.57;;;;;;;15.64;95.76;100305.28;4943827;28;20100;-70
2023/06/17 03:07:15;;;;;;;9.60;8.60;;;;;;;15.55;95.66;100311.25;4943660;28;20047;-70
2023/06/17 03:09:42;;;;;;;12.30;8.70;;;;;;;15.53;96.94;100304.28;4959855;28;20087;-69
2023/06/17 03:12:09;;;;;;;11.70;8.73;;;;;;;15.62;97.44;100315.19;4936462;29;20143;-69
2023/06/17 03:14:36;;;;;;;10.32;8.57;;;;;;;15.56;96.09;100296.09;4956235;29;20047;-70
2023/06/17 03:17:02;;;;;;;12.32;8.02;;;;;;;15.63;95.98;100316.03;4946684;28;20070;-70
2023/06/17 03:19:29;;;;;;;10.68;9.02;;;;;;;15.53;97.02;100318.47;4948969;29;20047;-70
2023/06/17 03:21:57;;;;;;;11.40;8.90;;;;;;;15.44;98.09;100321.75;4931313;29;20043;-70
2023/06/17 03:24:25;;;;;;;10.15;8.38;;;;;;;15.45;98.92;100310.13;4932274;29;20050;-70
2023/06/17 03:26:53;;;;;;;10.98;8.90;;;;;;;15.42;98.34;100319.19;4948903;28;20053;-70
2023/06/17 03:29:20;;;;;;;12.70;8.95;;;;;;;15.33;99.69;100325.16;4930942;28;20055;-70
2023/06/17 03:31:47;;;;;;;11.98;8.75;;;;;;;15.29;100.00;100317.47;4926029;28;20047;-70
2023/06/17 03:34:17;;;;;;;9.75;8.43;;;;;;;15.37;100.00;100315.16;4953052;28;20051;-70
2023/06/17 03:36:47;;;;;;;11.23;8.85;;;;;;;15.37;99.87;100328.47;4953775;28;20104;-70
2023/06/17 03:39:14;;;;;;;9.95;8.95;;;;;;;15.28;100.00;100324.63;4953483;28;20051;-70
2023/06/17 03:41:41;;;;;;;9.70;8.70;;;;;;;15.11;100.00;100305.41;4933633;28;20051;-71
2023/06/17 03:44:08;;;;;;;10.52;9.10;;;;;;;15.15;100.00;100321.06;4932375;28;20059;-70
2023/06/17 03:46:35;;;;;;;12.00;8.73;;;;;;;15.16;100.00;100320.09;4939734;29;20047;-71
2023/06/17 03:49:02;;;;;;;9.52;8.52;;;;;;;15.18;100.00;100320.88;4949931;28;20138;-70
2023/06/17 03:51:28;;;;;;;9.40;8.45;;;;;;;15.22;100.00;100313.50;4947845;28;20051;-70
2023/06/17 03:53:57;;;;;;;11.45;8.50;;;;;;;15.22;100.00;100314.38;4925419;28;20051;-71
2023/06/17 03:56:26;;;;;;;9.85;8.82;;;;;;;15.21;100.00;100319.81;4930768;29;20047;-71
2023/06/17 03:58:57;;;;;;;11.30;9.15;;;;;;;15.20;100.00;100313.63;4951684;28;20130;-69
2023/06/17 04:01:23;;;;;;;12.68;9.02;;;;;;;15.14;100.00;100315.81;4930479;29;20089;-70
2023/06/17 04:03:52;;;;;;;9.93;8.38;;;;;;;15.13;100.00;100319.44;4910876;29;20043;-69
2023/06/17 04:06:20;;;;;;;9.80;8.80;;;;;;;15.11;100.00;100314.22;4931539;28;20051;-71
2023/06/17 04:08:48;;;;;;;8.93;8.05;;;;;;;15.08;100.00;100317.97;4932619;29;20047;-69
2023/06/17 04:11:16;;;;;;;10.68;8.75;;;;;;;15.13;100.00;100316.78;4930672;29;20059;-70
2023/06/17 04:13:43;;;;;;;12.63;8.32;;;;;;;15.17;100.00;100318.28;4930318;29;20403;-70
2023/06/17 04:16:10;;;;;;;10.57;8.65;;;;;;;15.16;100.00;100305.91;4936936;29;20146;-71
2023/06/17 04:18:36;;;;;;;10.63;8.35;;;;;;;15.16;100.00;100303.25;4952582;28;20346;-70
2023/06/17 04:21:05;;;;;;;9.48;8.27;;;;;;;15.26;100.00;100307.03;4933680;28;20771;-72
2023/06/17 04:23:33;;;;;;;9.27;8.27;;;;;;;15.43;100.00;100304.03;4917454;28;20050;-70
2023/06/17 04:26:01;;;;;;;10.80;8.32;;;;;;;15.46;100.00;100314.50;4946661;28;20055;-70
2023/06/17 04:28:31;;;;;;;11.80;8.88;;;;;;;15.42;100.00;100313.84;4945796;28;20066;-70
2023/06/17 04:31:01;;;;;;;12.57;8.13;;;;;;;15.45;100.00;100307.47;4929405;29;20051;-70
2023/06/17 04:33:30;;;;;;;13.32;9.40;;;;;;;15.43;100.00;100307.56;4928811;28;20047;-70
2023/06/17 04:35:57;;;;;;;11.48;8.55;;;;;;;15.40;100.00;100313.13;4933735;29;20053;-69
2023/06/17 04:38:24;;;;;;;12.95;9.27;;;;;;;15.41;100.00;100314.00;4948241;28;20065;-70
2023/06/17 04:40:54;;;;;;;11.23;9.13;;;;;;;15.37;100.00;100308.00;4926918;29;20067;-70
2023/06/17 04:43:22;;;;;;;12.50;9.43;;;;;;;15.38;100.00;100308.84;4931275;28;20410;-70
2023/06/17 04:45:49;;;;;;;12.77;9.25;;;;;;;15.39;100.00;100308.75;4931756;28;20130;-70
2023/06/17 04:48:17;;;;;;;11.30;9.15;;;;;;;15.42;100.00;100313.84;4929184;28;20048;-72
2023/06/17 04:50:44;;;;;;;12.27;9.90;;;;;;;15.46;100.00;100314.50;4949504;28;20454;-69
2023/06/17 04:53:11;;;;;;;12.38;9.23;;;;;;;15.48;100.00;100319.75;4921096;29;20047;-70
2023/06/17 04:55:39;;;;;;;10.52;9.43;;;;;;;15.50;100.00;100310.69;4948635;28;20047;-70
2023/06/17 04:58:06;;;;;;;12.45;9.77;;;;;;;15.55;100.00;100311.25;4934546;28;20057;-70
2023/06/17 05:00:33;;;;;;;12.38;9.57;;;;;;;15.59;100.00;100315.41;4931851;29;20428;-69
2023/06/17 05:02:59;;;;;;;12.50;9.60;;;;;;;15.68;100.00;100316.59;4926296;29;20543;-70
2023/06/17 05:05:27;;;;;;;11.57;9.32;;;;;;;15.77;100.00;100311.47;4920852;29;20103;-69
2023/06/17 05:07:54;;;;;;;12.93;9.02;;;;;;;15.81;100.00;100306.78;4952002;28;20134;-69
2023/06/17 05:10:21;;;;;;;12.52;9.25;;;;;;;15.90;100.00;100319.47;4930648;28;20051;-69
2023/06/17 05:12:48;;;;;;;11.70;8.82;;;;;;;16.05;100.00;100325.56;4946641;28;20066;-70
2023/06/17 05:15:14;;;;;;;11.13;9.10;;;;;;;16.17;100.00;100326.50;4935579;28;20050;-69
2023/06/17 05:17:41;;;;;;;10.23;8.70;;;;;;;16.27;100.00;100323.06;4950898;28;20441;-69
2023/06/17 05:20:10;;;;;;;10.85;9.23;;;;;;;16.31;100.00;100313.88;4937896;29;20131;-70
2023/06/17 05:22:37;;;;;;;12.07;10.02;;;;;;;16.36;100.00;100321.56;4933627;28;20054;-70
2023/06/17 05:25:04;;;;;;;11.98;9.00;;;;;;;16.40;100.00;100318.53;4931824;29;20098;-70
2023/06/17 05:27:32;;;;;;;10.13;9.00;;;;;;;16.49;100.00;100325.91;4942233;28;20043;-70
2023/06/17 05:30:00;;;;;;;10.98;9.32;;;;;;;16.58;99.81;100321.69;4951580;28;20040;-70
2023/06/17 05:32:28;;;;;;;9.60;8.45;;;;;;;16.69;99.67;100324.47;4948355;29;20114;-70
2023/06/17 05:34:55;;;;;;;11.95;9.02;;;;;;;16.79;99.75;100320.16;4946560;28;20146;-71
2023/06/17 05:37:21;;;;;;;9.85;8.63;;;;;;;16.93;97.77;100315.59;4931541;29;20129;-71
2023/06/17 05:39:48;;;;;;;12.13;9.15;;;;;;;17.09;95.99;100322.38;4950716;28;20047;-70
2023/06/17 05:42:15;;;;;;;11.63;9.20;;;;;;;17.25;95.95;100327.44;4952918;28;21402;-71
2023/06/17 05:44:43;;;;;;;11.48;9.23;;;;;;;17.26;93.00;100329.13;4931080;29;20078;-71
2023/06/17 05:47:09;;;;;;;12.50;9.45;;;;;;;17.17;92.89;100319.09;4934097;28;20043;-71
2023/06/17 05:49:36;;;;;;;10.40;8.35;;;;;;;17.18;93.93;100319.00;4931048;29;20134;-71
2023/06/17 05:52:04;;;;;;;10.50;9.40;;;;;;;17.31;92.88;100331.47;4948939;28;20047;-70
2023/06/17 05:54:30;;;;;;;10.48;9.07;;;;;;;17.41;94.31;100337.81;4948195;28;20514;-70
2023/06/17 05:56:58;;;;;;;14.85;9.30;;;;;;;17.51;93.25;100330.78;4930897;29;20051;-70
2023/06/17 05:59:28;;;;;;;11.52;9.05;;;;;;;17.62;92.29;100325.47;4930277;29;20578;-70
2023/06/17 06:01:55;;;;;;;9.70;8.48;;;;;;;17.71;90.51;100332.81;4933555;29;20502;-69
2023/06/17 06:04:22;;;;;;;13.45;9.23;;;;;;;17.80;nan;100328.56;4930187;29;20067;-70
2023/06/17 06:06:48;;;;;;;12.88;9.07;;;;;;;17.88;88.46;100331.50;4948210;28;20043;-70
2023/06/17 06:09:15;;;;;;;17.00;9.30;;;;;;;18.06;87.84;100335.44;4947634;28;20059;-70
2023/06/17 06:11:42;;;;;;;10.85;9.30;;;;;;;18.22;86.61;100338.59;4929572;29;20078;-72
2023/06/17 06:14:10;;;;;;;14.02;9.50;;;;;;;18.39;85.89;100329.19;4928911;28;20111;-71
2023/06/17 06:16:37;;;;;;;10.25;8.90;;;;;;;18.49;83.79;100332.84;4950128;28;20146;-69
2023/06/17 06:19:05;;;;;;;14.38;9.57;;;;;;;18.78;82.31;100332.31;4949563;28;20905;-71
2023/06/17 06:21:31;;;;;;;11.75;8.85;;;;;;;19.17;79.06;100345.16;4948731;28;20059;-71
2023/06/17 06:24:00;;;;;;;12.30;8.85;;;;;;;19.37;76.87;100340.75;4929740;28;20047;-70
2023/06/17 06:26:27;;;;;;;14.45;9.10;;;;;;;19.50;74.67;100341.50;4933797;28;20071;-70
2023/06/17 06:28:54;;;;;;;12.98;9.27;;;;;;;19.60;74.17;100339.72;4952586;28;20536;-70
2023/06/17 06:31:22;;;;;;;13.43;8.68;;;;;;;19.83;73.98;100340.41;4949615;28;20130;-71
2023/06/17 06:33:48;;;;;;;11.52;8.95;;;;;;;20.21;71.14;100341.59;4923399;28;20510;-70
2023/06/17 06:36:16;;;;;;;9.70;8.70;;;;;;;20.48;70.66;100338.34;4949924;28;20499;-70
2023/06/17 06:38:43;;;;;;;11.00;8.70;;;;;;;20.78;68.15;100335.56;4949095;28;20129;-70
2023/06/17 06:41:10;;;;;;;10.80;9.00;;;;;;;21.03;65.38;100344.97;4947807;28;20051;-71
2023/06/17 06:43:37;;;;;;;11.95;9.13;;;;;;;21.16;65.15;100342.00;4943712;28;20051;-69
2023/06/17 06:46:06;;;;;;;11.27;8.60;;;;;;;21.38;64.33;100349.00;4925940;28;20116;-70
2023/06/17 06:48:33;;;;;;;8.80;7.90;;;;;;;21.89;62.85;100337.84;4946802;28;20405;-69
2023/06/17 06:51:01;;;;;;;11.55;8.00;;;;;;;22.59;59.51;100350.81;4946944;28;20585;-69
2023/06/17 06:53:28;;;;;;;9.20;7.68;;;;;;;23.14;57.33;100339.97;4944473;28;20043;-68
2023/06/17 06:55:55;;;;;;;11.05;7.97;;;;;;;23.60;54.53;100346.19;4926832;28;20073;-70
2023/06/17 06:58:23;;;;;;;9.38;7.75;;;;;;;23.72;55.57;100343.06;4947379;28;20062;-70
2023/06/17 07:00:50;;;;;;;10.30;8.50;;;;;;;23.73;54.32;100346.63;4946902;28;20119;-71
2023/06/17 07:03:18;;;;;;;9.57;7.63;;;;;;;23.72;54.03;100344.91;4928991;29;20046;-70
2023/06/17 07:05:46;;;;;;;10.63;8.15;;;;;;;23.90;54.68;100345.72;4946128;28;20055;-70
2023/06/17 07:08:13;;;;;;;8.98;8.07;;;;;;;24.29;51.46;100332.63;4954558;28;20053;-70
2023/06/17 07:10:40;;;;;;;12.10;8.00;;;;;;;24.64;49.11;100345.13;4932064;28;20429;-70
2023/06/17 07:13:08;;;;;;;13.43;8.70;;;;;;;24.48;47.17;100350.47;4951632;28;20053;-71
2023/06/17 07:15:34;;;;;;;9.05;8.13;;;;;;;24.34;49.70;100351.09;4932655;29;20486;-71
2023/06/17 07:18:01;;;;;;;11.60;8.05;;;;;;;24.54;52.06;100352.53;4950800;28;20596;-71
2023/06/17 07:20:29;;;;;;;10.38;8.13;;;;;;;24.41;48.75;100344.00;4934788;28;20126;-71
2023/06/17 07:22:56;;;;;;;11.25;8.13;;;;;;;24.67;46.68;100349.38;4953201;28;20081;-71
2023/06/17 07:25:25;;;;;;;10.95;8.95;;;;;;;24.77;46.59;100355.47;4949010;28;20106;-73
2023/06/17 07:27:56;;;;;;;11.57;9.05;;;;;;;24.06;47.56;100359.34;4932011;29;20121;-70
2023/06/17 07:30:23;;;;;;;12.25;9.23;;;;;;;23.39;48.95;100365.38;4942792;28;20506;-70
2023/06/17 07:32:51;;;;;;;12.25;8.75;;;;;;;23.89;51.14;100368.38;4945288;28;20043;-70
2023/06/17 07:35:18;;;;;;;11.98;8.23;;;;;;;24.47;47.34;100348.78;4943509;28;20078;-70
2023/06/17 07:37:45;;;;;;;12.93;8.30;;;;;;;24.72;48.14;100344.28;4946541;28;20055;-70
2023/06/17 07:40:13;;;;;;;11.18;8.85;;;;;;;24.47;46.83;100343.34;4945071;28;20043;-71
2023/06/17 07:42:42;;;;;;;12.50;8.25;;;;;;;24.46;48.00;100341.66;4944711;28;20047;-70
2023/06/17 07:45:10;;;;;;;10.25;8.88;;;;;;;24.22;46.67;100342.38;4926295;28;20057;-70
2023/06/17 07:47:38;;;;;;;9.97;8.60;;;;;;;24.12;47.41;100349.72;4943936;28;20062;-70
2023/06/17 07:50:10;;;;;;;9.55;8.07;;;;;;;23.87;48.32;100337.91;4926759;29;20150;-70
2023/06/17 07:52:38;;;;;;;13.07;7.82;;;;;;;23.99;46.83;100343.91;4948043;28;20056;-70
2023/06/17 07:55:05;;;;;;;8.07;7.28;;;;;;;24.00;46.45;100351.03;4928610;29;20055;-71
2023/06/17 07:57:34;;;;;;;9.82;7.45;;;;;;;24.00;45.58;100341.03;4934084;29;20723;-70
2023/06/17 08:00:00;;;;;;;8.57;6.90;;;;;;;24.17;45.74;100342.00;4929768;29;20126;-69
2023/06/17 08:02:27;;;;;;;8.15;6.47;;;;;;;24.41;44.57;100346.69;4929313;28;20569;-70
2023/06/17 08:04:54;;;;;;;9.63;7.28;;;;;;;24.50;45.00;100345.75;4925340;29;20047;-70
2023/06/17 08:07:21;;;;;;;9.50;6.75;;;;;;;24.96;42.92;100338.13;4946601;28;20137;-71
2023/06/17 08:09:49;;;;;;;10.50;6.68;;;;;;;25.21;43.14;100330.88;4947554;28;20055;-71
2023/06/17 08:12:16;;;;;;;10.27;7.85;;;;;;;25.30;43.82;100338.03;4944935;28;20130;-72
2023/06/17 08:14:43;;;;;;;12.10;7.65;;;;;;;25.39;43.14;100329.72;4945459;28;20054;-69
2023/06/17 08:17:09;;;;;;;10.00;7.38;;;;;;;25.41;42.73;100327.69;4930607;28;20047;-69
2023/06/17 08:19:36;;;;;;;9.27;6.80;;;;;;;25.38;43.05;100324.47;4943710;28;20071;-69
2023/06/17 08:22:03;;;;;;;12.48;8.10;;;;;;;25.47;43.43;100326.19;4946776;29;20069;-69
2023/06/17 08:24:30;;;;;;;11.48;7.88;;;;;;;25.46;43.14;100324.47;4941592;28;20047;-70
2023/06/17 08:26:57;;;;;;;9.85;7.65;;;;;;;25.58;42.91;100324.97;4931321;29;20425;-70
2023/06/17 08:29:23;;;;;;;9.60;8.50;;;;;;;25.98;43.24;100314.09;4950284;28;20122;-71
2023/06/17 08:31:52;;;;;;;10.70;8.18;;;;;;;26.36;42.87;100317.91;4949301;28;20055;-70
2023/06/17 08:34:24;;;;;;;12.80;8.10;;;;;;;26.24;42.61;100313.88;4929637;29;20055;-71
2023/06/17 08:36:52;;;;;;;9.70;7.43;;;;;;;26.20;42.55;100313.34;4951192;28;20426;-70
2023/06/17 08:39:19;;;;;;;10.30;7.63;;;;;;;26.16;42.07;100317.44;4950375;28;20051;-70
2023/06/17 08:41:46;;;;;;;10.32;7.20;;;;;;;26.18;42.14;100314.56;4947845;28;20059;-69
2023/06/17 08:44:14;;;;;;;9.45;6.90;;;;;;;26.18;42.79;100309.97;4927383;29;20405;-71
2023/06/17 08:46:43;;;;;;;11.65;6.90;;;;;;;26.18;41.51;100311.84;4933346;28;20055;-70
2023/06/17 08:49:14;;;;;;;8.70;6.38;;;;;;;26.03;40.93;100305.44;4939990;28;20074;-72
2023/06/17 08:51:42;;;;;;;6.88;6.22;;;;;;;26.15;41.61;100320.31;4938726;28;20143;-70
2023/06/17 08:54:11;;;;;;;8.63;6.50;;;;;;;26.51;40.47;100305.28;4951082;29;20043;-70
2023/06/17 08:56:38;;;;;;;10.40;6.95;;;;;;;26.55;39.92;100303.06;4933106;29;20051;-69
2023/06/17 08:59:05;;;;;;;6.68;6.07;;;;;;;26.74;40.66;100290.94;4948268;28;20079;-69
2023/06/17 09:01:34;;;;;;;7.05;6.13;;;;;;;26.86;38.43;100298.47;4935452;29;20055;-70
2023/06/17 09:04:02;;;;;;;7.97;5.97;;;;;;;26.95;38.13;100298.44;4956623;28;20098;-70
2023/06/17 09:06:29;;;;;;;9.82;5.82;;;;;;;27.12;38.46;100286.44;4936516;29;20167;-70
2023/06/17 09:08:57;;;;;;;10.30;6.32;;;;;;;27.48;36.33;100297.53;4954479;28;20042;-70
2023/06/17 09:11:28;;;;;;;8.15;6.00;;;;;;;27.44;37.54;100286.16;4923087;29;20214;-69
2023/06/17 09:13:57;;;;;;;7.20;5.60;;;;;;;27.79;35.31;100294.72;4935359;28;20483;-69
2023/06/17 09:16:26;;;;;;;8.15;5.57;;;;;;;28.00;33.25;100289.41;4933427;29;20047;-70
2023/06/17 09:18:58;;;;;;;9.90;5.87;;;;;;;27.86;34.00;100290.25;4941085;28;20126;-69
2023/06/17 09:21:26;;;;;;;7.43;5.35;;;;;;;27.34;34.61;100280.16;4930835;28;20048;-70
2023/06/17 09:23:54;;;;;;;6.25;5.45;;;;;;;27.33;35.33;100283.06;4945035;29;20047;-69
2023/06/17 09:26:27;;;;;;;6.60;5.55;;;;;;;27.45;34.38;100282.44;4947532;29;20055;-70
2023/06/17 09:29:03;;;;;;;6.65;5.32;;;;;;;27.38;34.21;100275.19;4950941;28;20588;-70
2023/06/17 09:31:30;;;;;;;7.45;5.60;;;;;;;26.98;34.38;100279.06;4946856;28;20087;-70
2023/06/17 09:34:02;;;;;;;7.40;6.00;;;;;;;26.96;34.61;100278.41;4926921;29;20071;-69
2023/06/17 09:36:29;;;;;;;8.05;6.18;;;;;;;26.73;35.00;100275.66;4928011;29;20063;-70
2023/06/17 09:38:55;;;;;;;6.32;5.72;;;;;;;26.46;35.64;100268.81;4933147;29;20047;-70
2023/06/17 09:41:23;;;;;;;7.45;5.68;;;;;;;26.45;34.82;100262.53;4929633;29;20090;-69
2023/06/17 09:43:54;;;;;;;7.13;5.32;;;;;;;26.67;34.34;100254.63;4926634;29;20047;-71
2023/06/17 09:46:29;;;;;;;7.18;5.80;;;;;;;27.01;34.36;100260.53;4925254;29;20051;-70
2023/06/17 09:48:59;;;;;;;6.05;5.53;;;;;;;27.17;33.41;100252.25;4914967;29;20135;-69
2023/06/17 09:51:37;;;;;;;7.78;5.55;;;;;;;27.14;33.46;100251.78;4934693;29;20058;-70
2023/06/17 09:54:06;;;;;;;8.80;5.68;;;;;;;27.20;34.24;100253.78;4932303;29;20079;-71
2023/06/17 09:56:34;;;;;;;6.95;5.10;;;;;;;27.16;34.17;100247.84;4929902;29;20071;-71
2023/06/17 09:59:08;;;;;;;6.25;5.65;;;;;;;27.40;33.35;100243.19;4936343;29;20122;-71
2023/06/17 10:01:39;;;;;;;6.40;5.75;;;;;;;27.57;33.99;100248.34;4928855;29;20557;-70
2023/06/17 10:04:07;;;;;;;8.20;5.78;;;;;;;27.53;34.12;100246.16;4915345;29;20134;-70
2023/06/17 10:06:35;;;;;;;6.30;5.70;;;;;;;27.24;33.84;100241.47;4910772;29;20044;-70
2023/06/17 10:09:08;;;;;;;9.95;5.50;;;;;;;27.04;33.62;100240.31;4897481;29;20095;-69
2023/06/17 10:11:35;;;;;;;7.40;5.55;;;;;;;26.85;33.42;100247.03;4927865;29;20066;-70
2023/06/17 10:14:07;;;;;;;6.57;5.60;;;;;;;26.82;32.82;100234.66;4937405;29;20056;-70
2023/06/17 10:16:38;;;;;;;8.00;5.35;;;;;;;27.07;33.00;100234.53;4911796;29;20454;-69
2023/06/17 10:19:07;;;;;;;6.13;5.15;;;;;;;27.27;33.03;100243.00;4929248;29;20047;-70
2023/06/17 10:21:39;;;;;;;10.02;5.63;;;;;;;27.13;33.33;100234.63;4917745;29;20134;-70
2023/06/17 10:24:10;;;;;;;6.18;5.57;;;;;;;27.20;33.73;100222.00;4914226;29;20131;-69
2023/06/17 10:26:37;;;;;;;5.65;5.15;;;;;;;27.49;32.06;100229.38;4925866;29;20582;-69
2023/06/17 10:29:10;;;;;;;5.70;5.15;;;;;;;27.52;32.89;100222.72;4932203;29;20066;-69
2023/06/17 10:31:39;;;;;;;6.50;5.60;;;;;;;27.54;31.73;100220.66;4911640;29;20051;-73
2023/06/17 10:34:20;;;;;;;4.63;4.15;;;;;;;27.52;29.21;100220.84;4922780;28;20158;-70
2023/06/17 10:36:57;;;;;;;7.90;4.68;;;;;;;27.48;28.94;100221.38;4926763;28;20047;-70
2023/06/17 10:39:25;;;;;;;6.93;4.70;;;;;;;27.38;29.41;100227.09;4952202;28;20122;-70
2023/06/17 10:41:55;;;;;;;;;;;;;;;27.20;29.08;100221.16;4930076;29;20445;-71
2023/06/17 10:44:35;;;;;;;8.00;4.93;;;;;;;27.33;28.33;100213.19;4933709;29;20381;-71
2023/06/17 10:47:14;;;;;;;5.57;4.80;;;;;;;27.40;28.63;100224.16;4944288;28;20055;-71
2023/06/17 10:49:45;;;;;;;5.78;5.00;;;;;;;27.00;30.37;100217.22;4930671;29;20422;-71
2023/06/17 10:52:13;;;;;;;6.53;4.97;;;;;;;26.79;31.31;100226.84;4929964;29;20138;-70
2023/06/17 10:54:49;;;;;;;4.90;4.50;;;;;;;26.75;32.02;100227.41;4947484;28;20118;-70
2023/06/17 10:57:15;;;;;;;6.47;4.90;;;;;;;26.87;30.81;100224.09;4948729;28;20047;-69
2023/06/17 10:59:42;;;;;;;8.35;5.38;;;;;;;27.15;30.46;100223.56;4932936;29;20051;-70
2023/06/17 11:02:11;;;;;;;5.72;5.05;;;;;;;27.10;30.19;100210.50;4930627;28;20154;-70
2023/06/17 11:04:42;;;;;;;5.13;4.63;;;;;;;27.08;31.45;100223.44;4949074;29;20105;-70
2023/06/17 11:07:09;;;;;;;5.63;4.60;;;;;;;27.06;29.83;100213.81;4931311;29;20490;-70
2023/06/17 11:09:36;;;;;;;4.93;4.30;;;;;;;27.24;29.03;100214.28;4954388;28;20095;-69
2023/06/17 11:12:04;;;;;;;7.75;4.95;;;;;;;27.50;28.83;100216.59;4954335;28;20039;-70
2023/06/17 11:14:33;;;;;;;5.53;4.43;;;;;;;27.83;29.09;100209.81;4954987;28;20039;-71
2023/06/17 11:17:00;;;;;;;5.35;4.47;;;;;;;28.24;27.87;100212.03;4919946;29;20166;-71
2023/06/17 11:19:28;;;;;;;4.97;4.47;;;;;;;28.40;27.99;100202.81;4937722;29;20055;-70
2023/06/17 11:22:03;;;;;;;4.72;4.30;;;;;;;28.51;28.38;100202.28;4950617;28;20047;-70
2023/06/17 11:24:33;;;;;;;8.18;5.10;;;;;;;28.68;28.49;100213.81;4930510;29;20078;-73